Time;durP1;ratioP1;P1;durP2;ratioP2;P2;SDS_P1;SDS_P2;PMS_P1;PMS_P2;Temp;Humidity;BMP_temperature;BMP_pressure;BME280_temperature;BME280_humidity;BME280_pressure;Samples;Min_cycle;Max_cycle;Signal;HPM_P1;HPM_P2
2022/01/21 00:00:26;;;;;;;6.55;2.45;;;;;;;;;;5000841;28;20092;-66
2022/01/21 00:02:53;;;;;;;18.58;3.03;;;;;;;;;;5007714;28;20106;-66
2022/01/21 00:05:21;;;;;;;13.32;3.28;;;;;;;;;;4995637;28;20053;-66
2022/01/21 00:07:47;;;;;;;13.68;2.55;;;;;;;;;;5006311;28;20029;-66
2022/01/21 00:10:13;;;;;;;10.75;2.40;;;;;;;;;;4993050;28;20099;-66
2022/01/21 00:12:39;;;;;;;9.60;3.83;;;;;;;;;;4992824;28;20430;-66
2022/01/21 00:15:06;;;;;;;17.38;2.95;;;;;;;;;;5008296;28;20030;-66
2022/01/21 00:17:32;;;;;;;8.63;2.65;;;;;;;;;;4995988;28;20054;-66
2022/01/21 00:30:58;;;;;;;13.82;2.10;;;;;;;;;;4978955;28;20038;-66
2022/01/21 00:33:24;;;;;;;12.57;2.50;;;;;;;;;;5008296;28;20026;-66
2022/01/21 00:35:50;;;;;;;14.45;2.80;;;;;;;;;;4980912;28;20426;-66
2022/01/21 00:38:16;;;;;;;8.02;2.00;;;;;;;;;;5002077;28;20053;-66
2022/01/21 00:40:42;;;;;;;15.20;3.65;;;;;;;;;;5005188;28;20081;-66
2022/01/21 00:43:20;;;;;;;8.95;1.92;;;;;;;;;;4977573;28;20487;-66
2022/01/21 00:45:46;;;;;;;9.20;2.22;;;;;;;;;;4977771;28;20073;-66
2022/01/21 00:48:13;;;;;;;11.82;1.90;;;;;;;;;;5000860;28;20371;-66
2022/01/21 00:50:39;;;;;;;14.18;2.65;;;;;;;;;;4999290;28;20042;-66
2022/01/21 00:53:05;;;;;;;11.68;2.30;;;;;;;;;;4990052;28;20030;-66
2022/01/21 00:55:31;;;;;;;12.82;2.40;;;;;;;;;;4995416;28;20022;-66
2022/01/21 00:57:57;;;;;;;10.68;2.38;;;;;;;;;;4976341;28;20482;-66
2022/01/21 01:00:23;;;;;;;14.93;2.67;;;;;;;;;;4986619;28;20037;-66
2022/01/21 01:02:49;;;;;;;7.18;2.40;;;;;;;;;;4992134;28;20026;-66
2022/01/21 01:05:16;;;;;;;10.95;2.10;;;;;;;;;;4998975;28;20061;-66
2022/01/21 01:07:42;;;;;;;11.57;2.55;;;;;;;;;;4993181;28;20109;-66
2022/01/21 01:10:15;;;;;;;9.18;2.10;;;;;;;;;;4978322;28;20035;-66
2022/01/21 01:20:41;;;;;;;16.15;2.53;;;;;;;;;;4990935;28;20394;-66
2022/01/21 01:23:26;;;;;;;15.23;1.92;;;;;;;;;;4977997;28;20412;-66
2022/01/21 01:28:38;;;;;;;17.70;2.28;;;;;;;;;;4989624;28;20116;-66
2022/01/21 01:31:04;;;;;;;11.40;2.85;;;;;;;;;;4997892;28;20529;-66
2022/01/21 01:33:36;;;;;;;11.57;3.10;;;;;;;;;;4993782;28;20113;-66
2022/01/21 01:36:04;;;;;;;15.48;2.40;;;;;;;;;;4999219;28;20074;-66
2022/01/21 01:41:03;;;;;;;11.23;2.72;;;;;;;;;;4977991;28;20050;-66
2022/01/21 01:51:26;;;;;;;8.45;2.25;;;;;;;;;;4980269;28;20414;-66
2022/01/21 01:53:52;;;;;;;12.27;2.80;;;;;;;;;;5009516;28;20026;-66
2022/01/21 01:56:20;;;;;;;7.97;2.28;;;;;;;;;;4986194;28;20030;-66
2022/01/21 01:58:46;;;;;;;16.50;2.45;;;;;;;;;;4994559;28;20026;-66
2022/01/21 02:01:12;;;;;;;15.57;2.58;;;;;;;;;;4980824;28;20035;-66
2022/01/21 02:03:39;;;;;;;17.15;3.08;;;;;;;;;;5010687;28;20073;-66
2022/01/21 02:06:05;;;;;;;15.18;3.03;;;;;;;;;;4983922;28;20161;-66
2022/01/21 02:08:31;;;;;;;20.83;5.47;;;;;;;;;;4986254;28;20026;-66
2022/01/21 02:10:58;;;;;;;10.65;2.55;;;;;;;;;;5008514;28;20454;-66
2022/01/21 02:13:29;;;;;;;5.97;2.35;;;;;;;;;;4980087;28;20142;-66
2022/01/21 02:16:05;;;;;;;8.82;3.33;;;;;;;;;;4991348;28;20037;-66
2022/01/21 02:21:35;;;;;;;16.77;4.93;;;;;;;;;;5004392;28;20397;-66
2022/01/21 02:24:08;;;;;;;16.45;3.15;;;;;;;;;;4985903;28;20129;-66
2022/01/21 02:26:34;;;;;;;;;;;;;;;;;;4987353;28;20068;-66
2022/01/21 02:29:02;;;;;;;12.45;2.55;;;;;;;;;;4988093;28;19944;-66
2022/01/21 02:31:29;;;;;;;10.40;2.28;;;;;;;;;;4980499;28;20053;-66
2022/01/21 02:33:56;;;;;;;14.93;3.53;;;;;;;;;;4988185;28;20034;-66
2022/01/21 02:36:22;;;;;;;13.70;3.55;;;;;;;;;;5004007;28;20099;-66
2022/01/21 02:38:48;;;;;;;17.45;4.78;;;;;;;;;;5002018;28;20497;-66
2022/01/21 02:41:15;;;;;;;12.30;2.80;;;;;;;;;;4984526;28;20054;-66
2022/01/21 02:43:41;;;;;;;9.60;2.30;;;;;;;;;;4987290;28;20383;-66
2022/01/21 02:46:09;;;;;;;12.95;3.03;;;;;;;;;;4981867;28;20031;-66
2022/01/21 02:48:38;;;;;;;14.05;2.72;;;;;;;;;;4985822;28;20491;-66
2022/01/21 02:51:06;;;;;;;16.10;3.53;;;;;;;;;;4987344;28;20567;-66
2022/01/21 02:54:03;;;;;;;10.88;3.83;;;;;;;;;;4979513;28;20026;-66
2022/01/21 02:56:25;;;;;;;14.88;3.63;;;;;;;;;;4983724;28;20035;-66
2022/01/21 02:58:51;;;;;;;11.93;3.13;;;;;;;;;;4981720;28;20471;-66
2022/01/21 03:01:18;;;;;;;9.13;2.33;;;;;;;;;;4979863;28;20498;-66
2022/01/21 03:03:46;;;;;;;13.45;2.83;;;;;;;;;;5008274;28;20160;-66
2022/01/21 03:06:16;;;;;;;15.38;3.17;;;;;;;;;;4983314;28;20026;-66
2022/01/21 03:08:44;;;;;;;10.57;2.58;;;;;;;;;;4984658;28;20098;-66
2022/01/21 03:11:12;;;;;;;11.25;2.47;;;;;;;;;;4990787;28;20173;-66
2022/01/21 03:13:40;;;;;;;6.93;2.20;;;;;;;;;;4978828;28;20030;-66
2022/01/21 03:16:06;;;;;;;15.70;2.70;;;;;;;;;;5005671;28;20025;-66
2022/01/21 03:18:32;;;;;;;7.93;2.40;;;;;;;;;;5003052;28;20042;-66
2022/01/21 03:20:59;;;;;;;9.15;2.28;;;;;;;;;;4981836;28;20117;-66
2022/01/21 03:23:27;;;;;;;14.00;2.53;;;;;;;;;;4993304;28;20034;-66
2022/01/21 03:25:54;;;;;;;12.63;2.58;;;;;;;;;;4991052;28;20046;-66
2022/01/21 03:28:38;;;;;;;11.70;2.40;;;;;;;;;;4979485;28;20030;-66
2022/01/21 03:31:05;;;;;;;9.10;2.28;;;;;;;;;;4956880;28;20027;-66
2022/01/21 03:33:32;;;;;;;10.15;2.88;;;;;;;;;;4989264;28;20076;-66
2022/01/21 03:35:58;;;;;;;11.18;2.28;;;;;;;;;;4975587;28;20045;-66
2022/01/21 03:38:26;;;;;;;12.65;2.67;;;;;;;;;;5000155;28;20037;-66
2022/01/21 03:40:53;;;;;;;12.38;2.75;;;;;;;;;;4987327;28;20499;-66
2022/01/21 03:43:20;;;;;;;14.38;2.85;;;;;;;;;;4979682;28;20049;-66
2022/01/21 03:45:47;;;;;;;16.25;2.78;;;;;;;;;;4991223;28;20073;-66
2022/01/21 03:48:13;;;;;;;13.52;2.95;;;;;;;;;;4981797;28;20455;-66
2022/01/21 03:50:39;;;;;;;9.65;2.65;;;;;;;;;;5002248;28;20062;-66
2022/01/21 03:53:05;;;;;;;13.90;3.15;;;;;;;;;;4978277;28;20482;-66
2022/01/21 03:55:34;;;;;;;16.38;2.90;;;;;;;;;;4976376;28;20034;-66
2022/01/21 03:58:02;;;;;;;11.32;2.72;;;;;;;;;;4990102;28;20121;-66
2022/01/21 04:00:33;;;;;;;8.48;2.88;;;;;;;;;;4983608;28;20120;-66
2022/01/21 04:03:00;;;;;;;19.08;3.80;;;;;;;;;;4981707;28;20038;-66
2022/01/21 04:05:27;;;;;;;13.68;3.25;;;;;;;;;;4987506;28;20050;-66
2022/01/21 04:07:54;;;;;;;9.25;2.58;;;;;;;;;;4975418;28;20523;-66
2022/01/21 04:10:20;;;;;;;9.85;3.20;;;;;;;;;;4979643;28;20402;-66
2022/01/21 04:12:46;;;;;;;14.13;3.13;;;;;;;;;;4975189;28;20402;-66
2022/01/21 04:15:13;;;;;;;13.52;3.33;;;;;;;;;;4989266;28;20036;-66
2022/01/21 04:17:40;;;;;;;8.95;2.53;;;;;;;;;;4977686;28;20530;-66
2022/01/21 04:20:07;;;;;;;10.85;3.28;;;;;;;;;;4989370;28;20041;-66
2022/01/21 04:22:33;;;;;;;11.05;3.28;;;;;;;;;;4995337;28;20038;-66
2022/01/21 04:25:01;;;;;;;15.63;2.92;;;;;;;;;;4978919;28;20025;-66
2022/01/21 04:27:27;;;;;;;8.43;2.97;;;;;;;;;;4982674;28;20023;-66
2022/01/21 04:29:53;;;;;;;16.23;4.97;;;;;;;;;;4986289;28;20022;-66
2022/01/21 04:32:25;;;;;;;11.98;3.92;;;;;;;;;;4978314;28;20407;-66
2022/01/21 04:34:51;;;;;;;13.88;3.20;;;;;;;;;;4977869;28;20041;-66
2022/01/21 04:37:18;;;;;;;9.48;2.80;;;;;;;;;;4987859;28;20105;-65
2022/01/21 04:40:29;;;;;;;12.15;2.83;;;;;;;;;;4975110;28;20036;-66
2022/01/21 04:48:17;;;;;;;6.90;3.13;;;;;;;;;;4977809;28;20038;-66
2022/01/21 04:51:12;;;;;;;13.65;2.42;;;;;;;;;;4979442;28;20434;-65
2022/01/21 04:53:40;;;;;;;9.15;2.58;;;;;;;;;;4985435;28;20077;-75
2022/01/21 04:56:13;;;;;;;10.10;2.65;;;;;;;;;;4980228;28;20132;-66
2022/01/21 04:58:39;;;;;;;14.48;3.42;;;;;;;;;;4975033;28;20042;-66
2022/01/21 05:01:06;;;;;;;6.85;2.53;;;;;;;;;;4983928;28;20026;-66
2022/01/21 05:03:33;;;;;;;8.00;2.88;;;;;;;;;;4978732;28;20110;-66
2022/01/21 05:06:00;;;;;;;10.38;2.80;;;;;;;;;;4986224;28;20183;-66
2022/01/21 05:08:33;;;;;;;9.07;2.70;;;;;;;;;;4984409;28;20038;-66
2022/01/21 05:11:01;;;;;;;11.98;3.55;;;;;;;;;;4975447;28;20076;-66
2022/01/21 05:13:36;;;;;;;6.90;3.25;;;;;;;;;;4982088;28;20442;-65
2022/01/21 05:18:29;;;;;;;14.27;3.05;;;;;;;;;;4972533;28;20089;-65
2022/01/21 05:21:14;;;;;;;10.10;3.53;;;;;;;;;;4980823;28;20044;-66
2022/01/21 05:23:50;;;;;;;13.75;3.60;;;;;;;;;;4981580;28;20065;-65
2022/01/21 05:26:16;;;;;;;17.15;4.40;;;;;;;;;;4980820;28;20038;-65
2022/01/21 05:28:42;;;;;;;12.77;3.90;;;;;;;;;;4990186;28;20105;-65
2022/01/21 05:31:19;;;;;;;16.50;3.72;;;;;;;;;;4979891;28;20026;-65
2022/01/21 05:34:12;;;;;;;14.40;3.13;;;;;;;;;;4981133;28;20515;-65
2022/01/21 05:36:43;;;;;;;14.60;3.97;;;;;;;;;;4990059;28;20061;-65
2022/01/21 05:39:19;;;;;;;14.88;3.72;;;;;;;;;;4979895;28;20037;-65
2022/01/21 05:42:08;;;;;;;13.57;3.70;;;;;;;;;;4988372;28;20077;-65
2022/01/21 05:47:59;;;;;;;10.65;3.03;;;;;;;;;;4943844;29;20067;-65
2022/01/21 05:50:45;;;;;;;7.70;2.45;;;;;;;;;;4944263;28;20036;-65
2022/01/21 05:53:30;;;;;;;11.95;2.70;;;;;;;;;;4941849;29;20173;-65
2022/01/21 05:56:11;;;;;;;8.20;2.80;;;;;;;;;;4942062;29;20535;-65
2022/01/21 05:58:52;;;;;;;12.75;2.58;;;;;;;;;;4935755;29;20075;-65
2022/01/21 06:01:18;;;;;;;11.07;2.35;;;;;;;;;;4934994;28;20055;-65
2022/01/21 06:03:45;;;;;;;13.02;2.30;;;;;;;;;;4926439;29;20066;-65
2022/01/21 06:06:12;;;;;;;10.55;3.80;;;;;;;;;;4934881;29;20484;-65
2022/01/21 06:08:38;;;;;;;6.10;2.08;;;;;;;;;;4934690;29;20135;-65
2022/01/21 06:11:04;;;;;;;10.40;3.70;;;;;;;;;;4933176;29;20027;-65
2022/01/21 06:13:31;;;;;;;6.00;2.15;;;;;;;;;;4925584;29;20419;-65
2022/01/21 06:15:59;;;;;;;8.05;2.33;;;;;;;;;;4934179;29;20032;-65
2022/01/21 06:18:25;;;;;;;9.32;2.22;;;;;;;;;;4936398;29;20579;-65
2022/01/21 06:20:52;;;;;;;8.80;2.08;;;;;;;;;;4956890;28;20046;-65
2022/01/21 06:23:18;;;;;;;10.50;2.33;;;;;;;;;;4971184;28;20487;-65
2022/01/21 06:25:44;;;;;;;14.23;3.42;;;;;;;;;;4993304;28;20087;-65
2022/01/21 06:28:11;;;;;;;4.13;2.05;;;;;;;;;;4991122;28;20467;-65
2022/01/21 06:30:37;;;;;;;11.73;2.17;;;;;;;;;;4991100;28;20117;-66
2022/01/21 06:33:03;;;;;;;8.73;1.75;;;;;;;;;;4975653;28;20026;-65
2022/01/21 06:35:29;;;;;;;8.70;1.92;;;;;;;;;;4975607;28;20030;-65
2022/01/21 06:37:55;;;;;;;5.35;1.92;;;;;;;;;;4992296;28;20040;-65
2022/01/21 06:40:21;;;;;;;9.05;2.40;;;;;;;;;;4994802;28;20566;-65
2022/01/21 06:42:48;;;;;;;4.30;1.27;;;;;;;;;;4974786;28;20172;-65
2022/01/21 06:45:15;;;;;;;3.90;1.92;;;;;;;;;;5010089;28;20026;-65
2022/01/21 06:47:41;;;;;;;7.38;1.85;;;;;;;;;;4994247;28;20011;-65
2022/01/21 06:50:08;;;;;;;4.55;1.60;;;;;;;;;;5004202;28;20076;-65
2022/01/21 06:52:34;;;;;;;10.55;2.08;;;;;;;;;;5007764;28;20519;-65
2022/01/21 06:55:01;;;;;;;7.43;2.13;;;;;;;;;;4979351;28;20415;-65
2022/01/21 06:57:27;;;;;;;9.38;2.03;;;;;;;;;;5006102;28;20026;-65
2022/01/21 06:59:53;;;;;;;8.57;3.45;;;;;;;;;;4996311;28;20029;-66
2022/01/21 07:02:20;;;;;;;14.38;3.08;;;;;;;;;;4993950;28;20081;-65
2022/01/21 07:04:47;;;;;;;10.52;2.90;;;;;;;;;;5001740;28;20513;-65
2022/01/21 07:07:13;;;;;;;13.25;2.72;;;;;;;;;;5003755;28;20037;-66
2022/01/21 07:09:40;;;;;;;12.10;4.05;;;;;;;;;;5005140;28;20022;-65
2022/01/21 07:12:06;;;;;;;11.13;4.60;;;;;;;;;;4985115;28;20034;-65
2022/01/21 07:14:32;;;;;;;11.18;3.83;;;;;;;;;;5001486;28;20026;-66
2022/01/21 07:16:58;;;;;;;15.48;4.15;;;;;;;;;;5009392;28;20068;-66
2022/01/21 07:19:24;;;;;;;14.70;3.80;;;;;;;;;;4980056;28;20040;-65
2022/01/21 07:21:51;;;;;;;12.23;3.63;;;;;;;;;;4999196;28;20110;-65
2022/01/21 07:24:17;;;;;;;12.98;3.97;;;;;;;;;;5003712;28;20037;-65
2022/01/21 07:26:43;;;;;;;9.60;3.22;;;;;;;;;;4998501;28;20030;-65
2022/01/21 07:29:09;;;;;;;9.57;3.42;;;;;;;;;;5005713;28;20042;-65
2022/01/21 07:31:35;;;;;;;8.45;3.22;;;;;;;;;;5007741;28;20026;-66
2022/01/21 07:34:04;;;;;;;11.95;3.90;;;;;;;;;;5001646;28;20034;-65
2022/01/21 07:36:31;;;;;;;11.93;2.90;;;;;;;;;;5000182;28;20033;-65
2022/01/21 07:38:57;;;;;;;10.50;3.17;;;;;;;;;;5008661;28;20029;-65
2022/01/21 07:41:24;;;;;;;9.85;3.50;;;;;;;;;;4969172;28;20057;-65
2022/01/21 07:43:52;;;;;;;17.05;5.10;;;;;;;;;;4994960;28;20038;-68
2022/01/21 07:46:18;;;;;;;24.83;7.88;;;;;;;;;;5003303;28;20065;-69
2022/01/21 07:48:44;;;;;;;28.48;11.15;;;;;;;;;;4992214;28;20044;-68
2022/01/21 07:51:11;;;;;;;33.47;12.45;;;;;;;;;;4993052;28;20026;-68
2022/01/21 07:53:37;;;;;;;62.38;21.02;;;;;;;;;;5000190;28;20034;-68
2022/01/21 07:56:04;;;;;;;66.25;22.00;;;;;;;;;;4997726;28;20034;-68
2022/01/21 07:58:30;;;;;;;53.58;19.80;;;;;;;;;;4990534;28;20038;-68
2022/01/21 08:00:56;;;;;;;44.47;15.40;;;;;;;;;;4975156;28;20513;-68
2022/01/21 08:03:24;;;;;;;50.60;17.95;;;;;;;;;;4976849;28;20036;-68
2022/01/21 08:05:51;;;;;;;48.08;16.90;;;;;;;;;;4992486;28;20490;-68
2022/01/21 08:08:17;;;;;;;39.20;16.00;;;;;;;;;;4990930;28;20483;-68
2022/01/21 08:10:43;;;;;;;31.42;11.85;;;;;;;;;;4991423;28;20026;-68
2022/01/21 08:13:09;;;;;;;33.88;11.02;;;;;;;;;;4990889;28;20414;-68
2022/01/21 08:15:36;;;;;;;33.00;10.15;;;;;;;;;;4994510;28;20041;-68
2022/01/21 08:18:02;;;;;;;45.40;13.60;;;;;;;;;;4985890;28;20034;-68
2022/01/21 08:20:29;;;;;;;39.47;12.80;;;;;;;;;;4993523;28;20290;-68
2022/01/21 08:22:55;;;;;;;28.95;10.10;;;;;;;;;;4992145;28;20030;-68
2022/01/21 08:25:21;;;;;;;24.83;8.52;;;;;;;;;;4991849;28;20030;-68
2022/01/21 08:27:47;;;;;;;25.08;7.45;;;;;;;;;;4993832;28;20030;-68
2022/01/21 08:30:13;;;;;;;18.13;6.97;;;;;;;;;;4990811;28;20030;-68
2022/01/21 08:32:40;;;;;;;20.13;7.20;;;;;;;;;;4994228;28;20553;-68
2022/01/21 08:35:07;;;;;;;18.85;6.22;;;;;;;;;;4989705;28;20030;-68
2022/01/21 08:37:33;;;;;;;21.40;7.03;;;;;;;;;;4992784;28;20022;-68
2022/01/21 08:40:00;;;;;;;20.10;6.60;;;;;;;;;;4978351;28;20494;-68
2022/01/21 08:42:26;;;;;;;16.88;5.80;;;;;;;;;;4955870;28;20031;-68
2022/01/21 08:44:52;;;;;;;15.52;5.85;;;;;;;;;;4976957;28;20042;-68
2022/01/21 08:47:21;;;;;;;17.83;5.57;;;;;;;;;;4991133;28;20022;-68
2022/01/21 08:49:49;;;;;;;16.20;6.88;;;;;;;;;;4989527;28;20029;-68
2022/01/21 08:52:20;;;;;;;22.67;6.50;;;;;;;;;;4988729;28;20125;-68
2022/01/21 08:54:49;;;;;;;13.93;5.75;;;;;;;;;;4989686;28;20030;-68
2022/01/21 08:57:16;;;;;;;15.98;5.35;;;;;;;;;;4989059;28;20026;-68
2022/01/21 08:59:42;;;;;;;14.25;4.97;;;;;;;;;;4994001;28;20018;-68
2022/01/21 09:02:09;;;;;;;18.33;5.93;;;;;;;;;;4990519;28;20030;-68
2022/01/21 09:04:35;;;;;;;12.63;5.43;;;;;;;;;;4998658;28;20968;-68
2022/01/21 09:07:02;;;;;;;18.02;6.53;;;;;;;;;;4991191;28;20410;-68
2022/01/21 09:09:29;;;;;;;19.75;6.78;;;;;;;;;;4980983;28;20430;-68
2022/01/21 09:11:59;;;;;;;31.65;11.65;;;;;;;;;;4991076;28;20591;-68
2022/01/21 09:14:29;;;;;;;40.70;17.60;;;;;;;;;;4989857;28;20029;-68
2022/01/21 09:16:57;;;;;;;48.13;20.13;;;;;;;;;;4988953;28;20153;-68
2022/01/21 09:19:26;;;;;;;43.33;16.77;;;;;;;;;;4989952;28;20113;-68
2022/01/21 09:21:52;;;;;;;48.67;17.73;;;;;;;;;;4990163;28;20133;-68
2022/01/21 09:24:19;;;;;;;38.88;13.10;;;;;;;;;;4993651;28;20475;-68
2022/01/21 09:26:45;;;;;;;65.55;22.92;;;;;;;;;;4976461;28;20023;-68
2022/01/21 09:29:12;;;;;;;39.15;16.27;;;;;;;;;;4979451;28;20076;-68
2022/01/21 09:31:38;;;;;;;34.58;12.25;;;;;;;;;;4980826;28;20474;-68
2022/01/21 09:34:05;;;;;;;25.25;10.50;;;;;;;;;;4994174;28;20030;-68
2022/01/21 09:36:32;;;;;;;32.03;12.35;;;;;;;;;;4997020;28;20034;-68
2022/01/21 09:39:00;;;;;;;33.58;13.27;;;;;;;;;;4994163;28;20026;-68
2022/01/21 09:41:26;;;;;;;46.70;18.83;;;;;;;;;;4992761;28;20053;-68
2022/01/21 09:43:53;;;;;;;42.60;18.95;;;;;;;;;;4996437;28;20044;-68
2022/01/21 09:46:36;;;;;;;43.08;19.65;;;;;;;;;;4995024;28;20084;-68
2022/01/21 09:49:09;;;;;;;45.28;20.70;;;;;;;;;;4992666;28;20026;-68
2022/01/21 09:51:38;;;;;;;69.50;32.50;;;;;;;;;;5005600;28;20109;-68
2022/01/21 09:54:05;;;;;;;54.22;25.85;;;;;;;;;;5005201;28;20038;-68
2022/01/21 09:56:34;;;;;;;51.75;24.52;;;;;;;;;;5002239;28;20041;-68
2022/01/21 09:59:01;;;;;;;43.30;20.35;;;;;;;;;;4996613;28;20444;-68
2022/01/21 10:01:27;;;;;;;34.35;15.75;;;;;;;;;;4997251;28;20399;-68
2022/01/21 10:03:54;;;;;;;41.50;16.88;;;;;;;;;;4994657;28;20037;-68
2022/01/21 10:06:23;;;;;;;50.85;20.98;;;;;;;;;;4999185;28;20479;-68
2022/01/21 10:08:51;;;;;;;24.63;11.80;;;;;;;;;;4975882;28;20525;-68
2022/01/21 10:11:19;;;;;;;24.23;9.77;;;;;;;;;;4996261;28;20030;-68
2022/01/21 10:13:47;;;;;;;21.38;9.48;;;;;;;;;;4993631;28;20069;-68
2022/01/21 10:16:13;;;;;;;28.70;10.95;;;;;;;;;;4994298;28;20024;-68
2022/01/21 10:18:41;;;;;;;20.60;8.48;;;;;;;;;;4996981;28;20029;-68
2022/01/21 10:21:13;;;;;;;14.52;6.43;;;;;;;;;;4993392;28;20047;-68
2022/01/21 10:23:40;;;;;;;20.23;6.65;;;;;;;;;;4994747;28;20026;-68
2022/01/21 10:26:09;;;;;;;23.17;7.60;;;;;;;;;;5005694;28;20033;-68
2022/01/21 10:28:36;;;;;;;9.80;6.25;;;;;;;;;;4992559;28;20034;-68
2022/01/21 10:31:08;;;;;;;15.80;4.47;;;;;;;;;;4998873;28;20018;-68
2022/01/21 10:33:37;;;;;;;16.98;4.07;;;;;;;;;;4997291;28;20239;-68
2022/01/21 10:36:08;;;;;;;14.05;4.90;;;;;;;;;;4992647;28;20034;-68
2022/01/21 10:38:42;;;;;;;13.50;5.00;;;;;;;;;;4967769;28;20076;-69
2022/01/21 10:41:10;;;;;;;14.00;4.53;;;;;;;;;;5003145;28;20045;-68
2022/01/21 10:43:36;;;;;;;13.82;3.78;;;;;;;;;;5005350;28;20038;-69
2022/01/21 10:46:04;;;;;;;11.05;3.60;;;;;;;;;;5001632;28;20617;-68
2022/01/21 10:48:31;;;;;;;10.82;3.03;;;;;;;;;;4980389;28;20072;-68
2022/01/21 10:51:16;;;;;;;10.23;3.35;;;;;;;;;;4993230;28;20025;-68
2022/01/21 10:53:45;;;;;;;14.68;2.75;;;;;;;;;;5000454;28;20033;-68
2022/01/21 10:56:16;;;;;;;12.05;2.85;;;;;;;;;;4994777;28;20034;-68
2022/01/21 10:58:46;;;;;;;7.68;2.53;;;;;;;;;;4993359;28;20030;-68
2022/01/21 11:01:17;;;;;;;16.45;3.55;;;;;;;;;;4981251;28;20482;-68
2022/01/21 11:04:03;;;;;;;14.13;3.15;;;;;;;;;;4992411;28;20050;-68
2022/01/21 11:06:39;;;;;;;7.15;2.90;;;;;;;;;;4980252;28;20038;-68
2022/01/21 11:09:12;;;;;;;34.97;5.28;;;;;;;;;;4993697;28;20406;-68
2022/01/21 11:11:38;;;;;;;9.90;3.95;;;;;;;;;;5000505;28;20037;-68
2022/01/21 11:14:12;;;;;;;12.30;4.50;;;;;;;;;;5002090;28;20030;-68
2022/01/21 11:16:40;;;;;;;12.75;3.47;;;;;;;;;;4995696;28;20033;-68
2022/01/21 11:19:12;;;;;;;13.25;3.40;;;;;;;;;;4994506;28;20037;-68
2022/01/21 11:21:39;;;;;;;8.25;3.22;;;;;;;;;;4994535;28;20125;-68
2022/01/21 11:24:06;;;;;;;8.57;3.72;;;;;;;;;;4986281;28;20470;-63
2022/01/21 11:26:32;;;;;;;9.77;3.20;;;;;;;;;;4995827;28;20029;-68
2022/01/21 11:28:59;;;;;;;15.65;3.78;;;;;;;;;;5000138;28;20097;-68
2022/01/21 11:31:27;;;;;;;12.15;3.10;;;;;;;;;;4995049;28;20026;-63
2022/01/21 11:33:53;;;;;;;9.60;2.97;;;;;;;;;;4997934;28;20488;-69
2022/01/21 11:36:19;;;;;;;14.13;3.83;;;;;;;;;;5001029;28;20036;-62
2022/01/21 11:38:48;;;;;;;10.60;2.90;;;;;;;;;;4990036;28;21780;-62
2022/01/21 11:41:15;;;;;;;12.82;3.40;;;;;;;;;;4992412;28;20647;-62
2022/01/21 11:43:50;;;;;;;13.25;3.40;;;;;;;;;;4992544;28;20034;-62
2022/01/21 11:46:20;;;;;;;21.23;3.53;;;;;;;;;;4995080;28;20030;-63
2022/01/21 11:48:51;;;;;;;15.65;4.03;;;;;;;;;;4985092;28;20026;-62
2022/01/21 11:51:22;;;;;;;7.82;2.47;;;;;;;;;;4982946;28;20027;-63
2022/01/21 11:53:49;;;;;;;10.02;3.53;;;;;;;;;;4990293;28;20026;-63
2022/01/21 11:56:31;;;;;;;13.23;3.17;;;;;;;;;;5002163;28;20153;-62
2022/01/21 11:59:06;;;;;;;11.40;2.72;;;;;;;;;;4990072;28;20390;-62
2022/01/21 12:01:34;;;;;;;15.23;3.42;;;;;;;;;;4995462;28;20034;-62
2022/01/21 12:04:03;;;;;;;8.77;2.58;;;;;;;;;;5000317;28;20076;-62
2022/01/21 12:06:36;;;;;;;10.10;2.92;;;;;;;;;;4991949;28;20030;-63
2022/01/21 12:09:08;;;;;;;12.35;3.10;;;;;;;;;;4990865;28;20124;-63
2022/01/21 12:11:38;;;;;;;12.30;2.78;;;;;;;;;;4997601;28;20049;-63
2022/01/21 12:14:26;;;;;;;10.50;3.30;;;;;;;;;;4993336;28;20038;-63
2022/01/21 12:16:58;;;;;;;9.63;2.20;;;;;;;;;;4988777;28;20085;-63
2022/01/21 12:19:36;;;;;;;14.15;3.25;;;;;;;;;;4998698;28;20134;-63
2022/01/21 12:22:16;;;;;;;13.57;3.08;;;;;;;;;;5003004;28;20403;-63
2022/01/21 12:24:47;;;;;;;15.98;3.45;;;;;;;;;;4993601;28;20552;-63
2022/01/21 12:27:14;;;;;;;9.57;2.70;;;;;;;;;;5002721;28;20115;-63
2022/01/21 12:29:40;;;;;;;9.95;2.38;;;;;;;;;;4999670;28;20418;-63
2022/01/21 12:32:23;;;;;;;12.32;2.35;;;;;;;;;;4992941;28;20022;-63
2022/01/21 12:35:14;;;;;;;11.05;2.28;;;;;;;;;;5003962;28;20089;-63
2022/01/21 12:38:05;;;;;;;9.88;1.70;;;;;;;;;;4997687;28;20037;-63
2022/01/21 12:40:35;;;;;;;12.52;2.55;;;;;;;;;;4983079;28;20415;-63
2022/01/21 12:43:21;;;;;;;12.63;2.22;;;;;;;;;;4989384;28;20038;-63
2022/01/21 12:46:01;;;;;;;10.40;2.47;;;;;;;;;;4994577;28;20030;-63
2022/01/21 12:48:32;;;;;;;8.50;2.30;;;;;;;;;;4989662;28;20023;-63
2022/01/21 12:51:17;;;;;;;11.00;2.40;;;;;;;;;;4979284;28;20026;-63
2022/01/21 12:56:41;;;;;;;8.23;1.90;;;;;;;;;;4992817;28;20045;-63
2022/01/21 12:59:07;;;;;;;13.38;2.25;;;;;;;;;;4995520;28;20026;-63
2022/01/21 13:01:37;;;;;;;8.27;2.08;;;;;;;;;;5003310;28;20037;-63
2022/01/21 13:04:10;;;;;;;8.23;1.88;;;;;;;;;;4992662;28;20030;-63
2022/01/21 13:06:38;;;;;;;13.02;2.30;;;;;;;;;;4994983;28;20383;-63
2022/01/21 13:09:06;;;;;;;11.98;2.55;;;;;;;;;;4995135;28;20026;-63
2022/01/21 13:11:33;;;;;;;11.32;2.67;;;;;;;;;;4994471;28;20483;-63
2022/01/21 13:14:24;;;;;;;12.18;2.20;;;;;;;;;;4994211;28;20402;-63
2022/01/21 13:16:55;;;;;;;12.70;1.80;;;;;;;;;;4996655;28;20120;-63
2022/01/21 13:19:22;;;;;;;10.20;2.55;;;;;;;;;;5004929;28;20026;-63
2022/01/21 13:21:48;;;;;;;4.90;1.98;;;;;;;;;;5005737;28;20033;-63
2022/01/21 13:24:29;;;;;;;7.55;1.92;;;;;;;;;;4994903;28;20042;-63
2022/01/21 13:26:55;;;;;;;7.07;2.15;;;;;;;;;;4996528;28;20073;-63
2022/01/21 13:29:47;;;;;;;7.03;2.25;;;;;;;;;;4993150;28;20030;-63
2022/01/21 13:32:13;;;;;;;4.68;1.90;;;;;;;;;;4994346;28;20035;-63
2022/01/21 13:34:39;;;;;;;10.80;2.10;;;;;;;;;;4997582;28;20026;-63
2022/01/21 13:37:07;;;;;;;12.32;3.53;;;;;;;;;;4993692;28;20554;-63
2022/01/21 13:39:36;;;;;;;10.55;2.80;;;;;;;;;;4994334;28;20395;-63
2022/01/21 13:42:02;;;;;;;11.13;2.35;;;;;;;;;;4995194;28;20104;-63
2022/01/21 13:44:28;;;;;;;9.73;2.35;;;;;;;;;;4992714;28;20063;-63
2022/01/21 13:46:57;;;;;;;9.68;2.40;;;;;;;;;;4999642;28;20461;-63
2022/01/21 13:49:23;;;;;;;10.25;2.63;;;;;;;;;;4991218;28;20109;-63
2022/01/21 13:51:54;;;;;;;12.70;2.00;;;;;;;;;;4996999;28;20430;-63
2022/01/21 13:54:28;;;;;;;10.40;1.88;;;;;;;;;;4995073;28;20038;-63
2022/01/21 13:56:54;;;;;;;5.63;1.75;;;;;;;;;;4991345;28;20026;-63
2022/01/21 13:59:20;;;;;;;10.77;2.35;;;;;;;;;;4994082;28;20518;-63
2022/01/21 14:01:46;;;;;;;8.65;2.38;;;;;;;;;;4991340;28;20026;-63
2022/01/21 14:04:12;;;;;;;6.85;1.80;;;;;;;;;;4991639;28;20038;-63
2022/01/21 14:06:39;;;;;;;8.77;2.08;;;;;;;;;;4992839;28;20047;-63
2022/01/21 14:09:05;;;;;;;6.45;1.83;;;;;;;;;;4992484;28;20058;-63
2022/01/21 14:11:42;;;;;;;12.45;2.38;;;;;;;;;;4993597;28;20019;-63
2022/01/21 14:14:10;;;;;;;9.48;1.90;;;;;;;;;;4991433;28;20038;-63
2022/01/21 14:16:39;;;;;;;7.10;2.55;;;;;;;;;;4989449;28;20038;-63
2022/01/21 14:19:09;;;;;;;12.32;2.03;;;;;;;;;;4990464;28;20034;-63
2022/01/21 14:21:36;;;;;;;10.02;2.08;;;;;;;;;;4991511;28;20121;-63
2022/01/21 14:24:08;;;;;;;7.20;2.17;;;;;;;;;;4991656;28;20018;-63
2022/01/21 14:26:42;;;;;;;10.80;2.67;;;;;;;;;;4993168;28;20091;-63
2022/01/21 14:29:08;;;;;;;13.25;2.05;;;;;;;;;;4991716;28;20023;-63
2022/01/21 14:31:36;;;;;;;7.93;1.90;;;;;;;;;;4995485;28;20076;-63
2022/01/21 14:34:04;;;;;;;6.28;1.52;;;;;;;;;;4994668;28;20105;-63
2022/01/21 14:36:30;;;;;;;7.72;1.67;;;;;;;;;;4995339;28;20031;-63
2022/01/21 14:39:11;;;;;;;16.67;2.00;;;;;;;;;;4992686;28;20510;-63
2022/01/21 14:41:58;;;;;;;5.97;1.73;;;;;;;;;;4991592;28;20046;-63
2022/01/21 14:44:47;;;;;;;12.88;2.08;;;;;;;;;;4991299;28;20073;-63
2022/01/21 14:47:14;;;;;;;12.38;2.75;;;;;;;;;;4994836;28;20057;-63
2022/01/21 14:49:42;;;;;;;6.72;2.45;;;;;;;;;;4992531;28;20410;-63
2022/01/21 14:54:51;;;;;;;10.68;2.13;;;;;;;;;;4992961;28;20033;-63
2022/01/21 14:57:17;;;;;;;4.25;1.77;;;;;;;;;;4991656;28;20038;-63
2022/01/21 14:59:53;;;;;;;13.93;1.80;;;;;;;;;;4961689;28;20029;-63
2022/01/21 15:02:28;;;;;;;7.90;1.70;;;;;;;;;;4986303;28;20037;-63
2022/01/21 15:04:55;;;;;;;7.57;1.33;;;;;;;;;;4985410;28;20114;-63
2022/01/21 15:07:25;;;;;;;10.32;1.73;;;;;;;;;;4991789;28;20026;-63
2022/01/21 15:09:53;;;;;;;6.80;2.00;;;;;;;;;;4990858;28;20093;-63
2022/01/21 15:15:36;;;;;;;5.47;1.75;;;;;;;;;;4991386;28;20030;-63
2022/01/21 15:18:03;;;;;;;8.10;1.90;;;;;;;;;;4988545;28;20038;-63
2022/01/21 15:20:32;;;;;;;8.18;1.65;;;;;;;;;;4974738;28;20041;-63
2022/01/21 15:22:58;;;;;;;7.93;1.88;;;;;;;;;;4994358;28;20034;-63
2022/01/21 15:25:25;;;;;;;5.88;2.30;;;;;;;;;;4990526;28;20034;-63
2022/01/21 15:27:51;;;;;;;10.80;2.67;;;;;;;;;;4994308;28;20030;-63
2022/01/21 15:30:17;;;;;;;6.38;1.85;;;;;;;;;;4989198;28;20030;-63
2022/01/21 15:32:43;;;;;;;8.70;2.72;;;;;;;;;;4992421;28;20030;-63
2022/01/21 15:35:10;;;;;;;7.75;2.15;;;;;;;;;;4987895;28;20061;-63
2022/01/21 15:37:36;;;;;;;3.97;1.75;;;;;;;;;;4990896;28;20244;-63
2022/01/21 15:40:10;;;;;;;10.45;2.13;;;;;;;;;;5086928;28;20382;-61